Time;durP1;ratioP1;P1;durP2;ratioP2;P2;SDS_P1;SDS_P2;PMS_P1;PMS_P2;Temp;Humidity;BMP_temperature;BMP_pressure;BME280_temperature;BME280_humidity;BME280_pressure;Samples;Min_cycle;Max_cycle;Signal;HPM_P1;HPM_P2
2021/06/24 00:01:57;;;;;;;2.20;1.67;;;26.60;99.90;;;;;;4955057;29;20055;-76
2021/06/24 00:04:23;;;;;;;3.22;1.13;;;26.60;99.90;;;;;;4954602;28;20042;-76
2021/06/24 00:06:49;;;;;;;2.53;1.73;;;26.50;99.90;;;;;;4953412;28;20134;-77
2021/06/24 00:09:15;;;;;;;0.73;0.65;;;26.50;99.90;;;;;;4954842;28;20038;-77
2021/06/24 00:11:42;;;;;;;4.40;3.67;;;26.50;99.90;;;;;;4954641;29;20063;-77
2021/06/24 00:14:07;;;;;;;0.90;0.90;;;26.60;99.90;;;;;;4954715;28;20058;-77
2021/06/24 00:16:33;;;;;;;1.42;1.15;;;26.20;99.90;;;;;;4954867;29;20059;-77
2021/06/24 00:18:59;;;;;;;1.30;1.20;;;26.10;99.90;;;;;;4954635;29;20094;-77
2021/06/24 00:21:25;;;;;;;5.45;3.67;;;26.00;99.70;;;;;;4954618;28;20020;-77
2021/06/24 00:23:51;;;;;;;3.63;3.30;;;25.80;99.70;;;;;;4954097;29;20360;-78
2021/06/24 00:26:17;;;;;;;2.05;1.85;;;25.90;99.70;;;;;;4954388;29;20066;-77
2021/06/24 00:28:43;;;;;;;2.30;1.85;;;26.00;99.90;;;;;;4954494;28;20046;-77
2021/06/24 00:31:09;;;;;;;4.30;1.55;;;26.10;99.70;;;;;;4954331;29;20102;-77
2021/06/24 00:33:34;;;;;;;1.30;1.20;;;26.10;99.90;;;;;;4954175;29;20071;-77
2021/06/24 00:36:00;;;;;;;0.95;0.90;;;26.30;99.90;;;;;;4952935;29;20142;-77
2021/06/24 00:38:26;;;;;;;8.88;3.38;;;26.30;99.90;;;;;;4954223;29;20027;-77
2021/06/24 00:40:52;;;;;;;1.77;1.67;;;26.40;99.90;;;;;;4954255;29;20510;-76
2021/06/24 00:43:20;;;;;;;2.35;1.98;;;26.30;99.90;;;;;;4953259;29;20078;-76
2021/06/24 00:45:47;;;;;;;3.33;2.85;;;26.30;99.90;;;;;;4953931;28;20400;-75
2021/06/24 00:48:13;;;;;;;5.43;1.77;;;26.30;99.90;;;;;;4954123;28;20043;-77
2021/06/24 00:50:42;;;;;;;8.80;3.95;;;26.20;99.90;;;;;;4953707;28;20038;-76
2021/06/24 00:53:09;;;;;;;2.38;2.15;;;26.20;99.90;;;;;;4953718;28;20081;-76
2021/06/24 00:55:42;;;;;;;1.52;1.42;;;26.10;99.90;;;;;;4952890;29;20023;-78
2021/06/24 00:58:10;;;;;;;1.27;1.17;;;26.10;99.90;;;;;;4954053;28;20062;-78
2021/06/24 01:00:41;;;;;;;1.65;1.40;;;26.10;99.90;;;;;;4953967;28;20063;-79
2021/06/24 01:03:06;;;;;;;;;;;25.90;99.90;;;;;;4954129;28;20094;-78
2021/06/24 01:05:34;;;;;;;0.93;0.90;;;26.00;99.90;;;;;;4953826;28;19910;-78
2021/06/24 01:08:00;;;;;;;1.60;1.50;;;25.90;99.90;;;;;;4953952;28;20023;-78
2021/06/24 01:10:25;;;;;;;3.08;2.05;;;26.00;99.90;;;;;;4953842;28;20036;-77
2021/06/24 01:12:52;;;;;;;1.20;1.05;;;26.00;99.90;;;;;;4953639;28;20029;-75
2021/06/24 01:15:18;;;;;;;0.85;0.85;;;25.80;99.90;;;;;;4953956;28;20034;-78
2021/06/24 01:17:44;;;;;;;2.35;2.10;;;25.80;99.90;;;;;;4953492;28;20061;-78
2021/06/24 01:20:11;;;;;;;4.80;1.65;;;25.80;99.90;;;;;;4953352;28;20481;-79
2021/06/24 01:22:36;;;;;;;1.23;1.13;;;25.70;99.90;;;;;;4953558;28;20027;-79
2021/06/24 01:25:03;;;;;;;1.30;1.20;;;25.70;99.90;;;;;;4954013;28;20086;-77
2021/06/24 01:27:29;;;;;;;1.95;1.83;;;25.70;99.90;;;;;;4953258;28;20023;-78
2021/06/24 01:29:55;;;;;;;15.27;1.52;;;25.70;99.90;;;;;;4953255;28;20073;-78
2021/06/24 01:32:21;;;;;;;1.17;1.08;;;25.70;99.90;;;;;;4953600;28;20046;-75
2021/06/24 01:34:47;;;;;;;8.40;2.00;;;25.80;99.90;;;;;;4953264;28;20090;-77
2021/06/24 01:37:13;;;;;;;2.05;1.85;;;25.50;99.90;;;;;;4953675;28;20408;-79
2021/06/24 01:39:39;;;;;;;1.55;1.45;;;25.40;99.90;;;;;;4953125;28;20479;-77
2021/06/24 01:42:05;;;;;;;1.00;0.95;;;25.30;99.90;;;;;;4953341;28;20472;-76
2021/06/24 01:44:36;;;;;;;12.90;2.67;;;25.40;99.90;;;;;;4953180;28;20496;-76
2021/06/24 01:47:03;;;;;;;1.58;1.48;;;25.40;99.90;;;;;;4953194;28;20023;-76
2021/06/24 01:49:30;;;;;;;1.50;1.40;;;25.40;99.90;;;;;;4953002;28;20035;-76
2021/06/24 01:51:56;;;;;;;2.95;2.60;;;25.30;99.90;;;;;;4953444;28;20027;-76
2021/06/24 01:54:23;;;;;;;3.50;3.10;;;25.30;99.90;;;;;;4953159;28;20031;-78
2021/06/24 01:56:49;;;;;;;1.52;1.42;;;25.30;99.90;;;;;;4952810;28;20023;-78
2021/06/24 01:59:15;;;;;;;0.73;0.73;;;25.30;99.90;;;;;;4951664;29;20079;-76
2021/06/24 02:01:41;;;;;;;11.48;2.72;;;25.30;99.90;;;;;;4952012;29;20646;-79
2021/06/24 02:04:07;;;;;;;1.50;1.40;;;25.30;99.90;;;;;;4953176;28;20023;-78
2021/06/24 02:06:34;;;;;;;4.60;3.33;;;25.30;99.90;;;;;;4953215;28;20027;-78
2021/06/24 02:09:21;;;;;;;2.55;2.22;;;25.30;99.90;;;;;;4953309;28;20047;-78
2021/06/24 02:11:47;;;;;;;0.77;0.77;;;25.30;99.90;;;;;;4953187;29;20020;-78
2021/06/24 02:14:13;;;;;;;0.70;0.70;;;25.30;99.90;;;;;;4953119;29;20039;-77
2021/06/24 02:16:39;;;;;;;2.25;2.08;;;25.20;99.90;;;;;;4953061;29;20019;-76
2021/06/24 02:19:04;;;;;;;2.50;2.15;;;25.00;99.90;;;;;;4952888;29;20061;-77
2021/06/24 02:21:30;;;;;;;3.70;2.85;;;25.00;99.90;;;;;;4951954;29;20387;-78
2021/06/24 02:23:56;;;;;;;1.48;1.38;;;25.10;99.90;;;;;;4952986;29;20027;-77
2021/06/24 02:26:22;;;;;;;1.27;1.17;;;25.20;99.90;;;;;;4951936;29;20035;-79
2021/06/24 02:28:47;;;;;;;2.63;2.42;;;25.20;99.90;;;;;;4951743;28;20460;-78
2021/06/24 02:31:13;;;;;;;3.15;2.58;;;25.10;99.90;;;;;;4954890;29;20506;-77
2021/06/24 02:33:39;;;;;;;2.22;2.03;;;25.00;99.90;;;;;;4956052;29;20031;-78
2021/06/24 02:36:05;;;;;;;5.70;4.00;;;24.90;99.90;;;;;;4956450;28;20431;-77
2021/06/24 02:38:31;;;;;;;1.33;1.27;;;24.90;99.90;;;;;;4956181;28;20023;-77
2021/06/24 02:40:57;;;;;;;1.58;1.48;;;24.90;99.90;;;;;;4956246;29;20034;-77
2021/06/24 02:43:23;;;;;;;2.30;1.88;;;24.90;99.90;;;;;;4955760;29;20032;-77
2021/06/24 02:45:49;;;;;;;0.90;0.90;;;25.00;99.90;;;;;;4956294;28;20180;-77
2021/06/24 02:48:14;;;;;;;1.45;1.35;;;25.00;99.90;;;;;;4956084;29;20110;-78
2021/06/24 02:50:40;;;;;;;1.02;0.98;;;25.00;99.90;;;;;;4956193;29;20491;-78
2021/06/24 02:53:06;;;;;;;1.20;1.10;;;25.10;99.90;;;;;;4955960;28;20031;-77
2021/06/24 02:55:32;;;;;;;1.35;1.25;;;25.10;99.90;;;;;;4956465;28;20023;-78
2021/06/24 02:57:58;;;;;;;0.73;0.73;;;25.10;99.90;;;;;;4955449;29;20471;-78
2021/06/24 03:00:25;;;;;;;4.03;1.98;;;25.10;99.90;;;;;;4956377;28;20031;-78
2021/06/24 03:02:51;;;;;;;1.85;1.70;;;25.20;99.90;;;;;;4955830;28;20039;-78
2021/06/24 03:05:17;;;;;;;1.88;1.73;;;25.20;99.90;;;;;;4955731;28;20023;-77
2021/06/24 03:07:43;;;;;;;3.17;2.10;;;25.20;99.90;;;;;;4955830;28;20063;-76
2021/06/24 03:10:10;;;;;;;1.63;1.50;;;25.20;99.90;;;;;;4954718;29;20062;-77
2021/06/24 03:12:36;;;;;;;4.32;3.60;;;25.10;99.90;;;;;;4955583;28;20502;-78
2021/06/24 03:15:04;;;;;;;3.13;2.92;;;25.10;99.90;;;;;;4955935;28;20156;-77
2021/06/24 03:17:30;;;;;;;0.60;0.60;;;25.10;99.90;;;;;;4954105;29;20655;-78
2021/06/24 03:19:56;;;;;;;0.73;0.73;;;25.10;99.90;;;;;;4955903;29;20115;-78
2021/06/24 03:22:21;;;;;;;1.83;1.60;;;25.20;99.90;;;;;;4955780;29;20050;-77
2021/06/24 03:24:47;;;;;;;1.95;1.83;;;25.10;99.90;;;;;;4955705;29;20054;-76
2021/06/24 03:27:13;;;;;;;2.30;1.67;;;24.80;99.90;;;;;;4955326;29;20058;-77
2021/06/24 03:29:39;;;;;;;1.15;1.05;;;24.70;99.90;;;;;;4954227;29;20630;-78
2021/06/24 03:32:05;;;;;;;1.65;1.55;;;24.90;99.90;;;;;;4955541;29;20027;-78
2021/06/24 03:34:30;;;;;;;2.97;2.67;;;24.70;99.90;;;;;;4955555;29;20038;-78
2021/06/24 03:36:57;;;;;;;1.83;1.73;;;24.70;99.90;;;;;;4954789;29;20032;-77
2021/06/24 03:39:22;;;;;;;3.53;2.35;;;24.70;99.90;;;;;;4955416;28;20023;-77
2021/06/24 03:41:48;;;;;;;1.88;1.77;;;24.50;99.90;;;;;;4955054;28;20046;-78
2021/06/24 03:44:14;;;;;;;7.20;3.78;;;24.40;99.90;;;;;;4953649;29;20047;-78
2021/06/24 03:46:40;;;;;;;1.55;1.45;;;24.40;99.90;;;;;;4954886;29;20102;-78
2021/06/24 03:49:06;;;;;;;1.40;1.30;;;24.10;99.90;;;;;;4955068;29;20035;-76
2021/06/24 03:51:31;;;;;;;4.78;3.30;;;24.10;99.90;;;;;;4955350;28;20439;-77
2021/06/24 03:53:58;;;;;;;1.30;1.20;;;24.20;99.90;;;;;;4955112;29;20023;-77
2021/06/24 03:56:24;;;;;;;1.58;1.48;;;24.20;99.90;;;;;;4954620;28;20045;-77
2021/06/24 03:58:50;;;;;;;1.88;1.60;;;24.20;99.90;;;;;;4954965;28;20479;-77
2021/06/24 04:01:16;;;;;;;3.90;1.83;;;24.60;99.90;;;;;;4955017;28;20518;-78
2021/06/24 04:03:41;;;;;;;0.77;0.77;;;24.70;99.90;;;;;;4955193;28;20070;-77
2021/06/24 04:06:07;;;;;;;2.95;2.72;;;24.80;99.90;;;;;;4954933;28;20023;-77
2021/06/24 04:08:33;;;;;;;0.90;0.90;;;24.90;99.90;;;;;;4954742;28;20031;-76
2021/06/24 04:11:00;;;;;;;0.88;0.88;;;24.90;99.90;;;;;;4955268;28;20446;-77
2021/06/24 04:13:25;;;;;;;1.95;1.25;;;24.90;99.90;;;;;;4954746;28;20027;-78
2021/06/24 04:15:51;;;;;;;1.20;1.15;;;25.00;99.90;;;;;;4953254;29;20038;-76
2021/06/24 04:18:17;;;;;;;3.10;2.35;;;25.00;99.90;;;;;;4954749;28;20460;-77
2021/06/24 04:20:43;;;;;;;2.50;1.45;;;25.20;99.90;;;;;;4954752;28;20495;-77
2021/06/24 04:23:09;;;;;;;6.15;2.58;;;25.20;99.90;;;;;;4954557;28;20055;-77
2021/06/24 04:25:36;;;;;;;13.15;2.70;;;25.20;99.90;;;;;;4955107;28;20058;-76
2021/06/24 04:28:02;;;;;;;1.83;1.73;;;25.20;99.90;;;;;;4954345;28;20085;-77
2021/06/24 04:30:28;;;;;;;1.48;1.38;;;25.20;99.90;;;;;;4954347;28;20073;-77
2021/06/24 04:32:55;;;;;;;0.70;0.70;;;25.20;99.90;;;;;;4954550;28;20035;-78
2021/06/24 04:35:21;;;;;;;1.27;1.17;;;25.30;99.90;;;;;;4954346;28;20049;-77
2021/06/24 04:37:47;;;;;;;1.60;1.50;;;25.20;99.90;;;;;;4953754;28;20023;-77
2021/06/24 04:40:13;;;;;;;3.13;2.35;;;25.30;99.90;;;;;;4954514;28;20090;-78
2021/06/24 04:42:39;;;;;;;1.13;1.05;;;25.20;99.90;;;;;;4954148;28;20107;-77
2021/06/24 04:45:07;;;;;;;1.75;1.20;;;25.20;99.90;;;;;;4954031;28;20122;-77
2021/06/24 04:47:33;;;;;;;2.85;1.85;;;25.40;99.90;;;;;;4953652;28;20049;-76
2021/06/24 04:49:59;;;;;;;3.15;1.63;;;25.40;99.90;;;;;;4954074;28;20035;-78
2021/06/24 04:52:25;;;;;;;3.90;3.25;;;25.40;99.90;;;;;;4944633;28;20028;-77
2021/06/24 04:54:51;;;;;;;8.30;4.78;;;25.40;99.90;;;;;;4947570;29;20046;-76
2021/06/24 04:57:17;;;;;;;3.10;2.33;;;25.50;99.90;;;;;;4934634;29;20031;-76
2021/06/24 04:59:43;;;;;;;6.20;2.65;;;25.60;99.90;;;;;;4934468;29;20106;-77
2021/06/24 05:02:08;;;;;;;1.60;1.33;;;25.50;99.90;;;;;;4934207;29;20027;-78
2021/06/24 05:04:34;;;;;;;1.42;1.33;;;25.50;99.90;;;;;;4934434;29;20056;-79
2021/06/24 05:07:07;;;;;;;5.85;3.35;;;25.50;99.90;;;;;;4933210;29;20484;-80
2021/06/24 05:09:38;;;;;;;1.60;1.50;;;25.50;99.90;;;;;;4934175;29;20048;-79
2021/06/24 05:12:09;;;;;;;0.85;0.80;;;25.50;99.90;;;;;;4933316;29;20118;-80
2021/06/24 05:14:35;;;;;;;6.97;4.40;;;25.30;99.90;;;;;;4933881;29;20023;-78
2021/06/24 05:17:01;;;;;;;1.33;1.23;;;25.50;99.90;;;;;;4934520;29;20623;-77
2021/06/24 05:19:27;;;;;;;1.75;1.65;;;25.50;99.90;;;;;;4934232;29;20074;-78
2021/06/24 05:21:54;;;;;;;0.98;0.95;;;25.50;99.90;;;;;;4934592;29;20030;-77
2021/06/24 05:24:20;;;;;;;1.98;1.63;;;25.50;99.90;;;;;;4933842;29;20440;-77
2021/06/24 05:26:46;;;;;;;2.35;1.77;;;25.50;99.90;;;;;;4933057;29;20454;-78
2021/06/24 05:29:11;;;;;;;6.93;3.80;;;25.50;99.90;;;;;;4934227;29;20112;-78
2021/06/24 05:31:39;;;;;;;1.75;1.45;;;25.60;99.90;;;;;;4933812;29;20030;-79
2021/06/24 05:34:05;;;;;;;1.45;1.15;;;25.70;99.90;;;;;;4932750;29;20437;-78
2021/06/24 05:36:32;;;;;;;1.58;1.48;;;25.70;99.90;;;;;;4934458;29;20024;-78
2021/06/24 05:38:58;;;;;;;2.45;2.25;;;25.70;99.90;;;;;;4934133;29;20047;-76
2021/06/24 05:41:24;;;;;;;0.77;0.77;;;25.70;99.90;;;;;;4934596;29;20024;-77
2021/06/24 05:43:49;;;;;;;9.55;3.63;;;25.80;99.90;;;;;;4933932;29;20432;-78
2021/06/24 05:46:15;;;;;;;1.00;1.00;;;26.00;99.90;;;;;;4934066;29;20571;-77
2021/06/24 05:48:41;;;;;;;0.75;0.75;;;26.10;99.90;;;;;;4934506;29;20047;-79
2021/06/24 05:51:07;;;;;;;1.02;1.00;;;26.20;99.90;;;;;;4934091;29;20063;-78
2021/06/24 05:53:33;;;;;;;0.68;0.68;;;26.20;99.90;;;;;;4937409;29;20035;-77
2021/06/24 05:55:59;;;;;;;1.08;1.08;;;26.20;99.90;;;;;;4953395;28;20039;-78
2021/06/24 05:58:30;;;;;;;8.23;3.25;;;25.90;99.90;;;;;;4952061;29;20027;-76
2021/06/24 06:00:58;;;;;;;2.03;1.85;;;25.80;99.90;;;;;;4952855;28;20023;-78
2021/06/24 06:03:24;;;;;;;2.78;2.55;;;26.10;99.90;;;;;;4954322;28;20054;-78
2021/06/24 06:05:51;;;;;;;1.13;1.08;;;26.20;99.90;;;;;;4957043;28;20043;-79
2021/06/24 06:08:18;;;;;;;3.72;1.48;;;26.20;99.90;;;;;;4956859;28;20027;-78
2021/06/24 06:10:44;;;;;;;3.33;2.35;;;25.90;99.90;;;;;;4956457;28;20447;-77
2021/06/24 06:13:10;;;;;;;7.10;5.68;;;26.10;99.90;;;;;;4956936;28;20027;-78
2021/06/24 06:15:41;;;;;;;6.25;5.65;;;26.40;99.90;;;;;;4956877;28;20477;-78
2021/06/24 06:18:15;;;;;;;5.07;4.57;;;26.50;99.90;;;;;;4956015;28;20043;-76
2021/06/24 06:20:41;;;;;;;6.47;4.50;;;26.70;99.90;;;;;;4956373;28;20094;-76
2021/06/24 06:23:07;;;;;;;3.05;2.53;;;26.90;99.90;;;;;;4956390;28;20047;-77
2021/06/24 06:25:33;;;;;;;1.40;1.30;;;26.90;99.90;;;;;;4956047;29;20023;-76
2021/06/24 06:27:59;;;;;;;10.25;5.72;;;27.00;99.90;;;;;;4956349;28;20035;-78
2021/06/24 06:30:26;;;;;;;1.33;1.23;;;27.10;99.90;;;;;;4954678;29;20035;-77
2021/06/24 06:32:53;;;;;;;0.60;0.60;;;26.80;99.90;;;;;;4956579;29;20036;-78
2021/06/24 06:35:19;;;;;;;1.63;1.52;;;26.80;99.90;;;;;;4956558;28;20082;-77
2021/06/24 06:37:44;;;;;;;3.28;2.83;;;27.10;99.90;;;;;;4956161;29;20023;-78
2021/06/24 06:40:12;;;;;;;2.03;1.67;;;27.00;99.90;;;;;;4954616;28;20121;-76
2021/06/24 06:42:38;;;;;;;1.02;0.93;;;27.30;99.90;;;;;;4955022;28;20038;-78
2021/06/24 06:45:05;;;;;;;1.25;1.15;;;27.30;99.90;;;;;;4973873;28;20054;-76
2021/06/24 06:47:31;;;;;;;1.83;1.70;;;27.40;99.90;;;;;;4974535;28;20517;-76
2021/06/24 06:49:57;;;;;;;3.22;2.55;;;27.50;99.90;;;;;;4960889;28;20050;-75
2021/06/24 06:52:23;;;;;;;2.35;2.15;;;27.60;99.90;;;;;;4952458;28;20073;-78
2021/06/24 06:54:49;;;;;;;1.95;1.25;;;27.60;99.90;;;;;;4952579;28;20028;-82
2021/06/24 06:57:14;;;;;;;1.80;1.33;;;27.40;99.90;;;;;;4957871;28;20028;-81
2021/06/24 06:59:41;;;;;;;5.40;4.00;;;27.60;99.90;;;;;;4955182;28;20027;-78
2021/06/24 07:02:08;;;;;;;2.10;1.70;;;27.70;99.90;;;;;;4952219;29;20119;-79
2021/06/24 07:04:34;;;;;;;6.45;4.25;;;27.70;99.90;;;;;;4954431;28;20031;-77
2021/06/24 07:07:00;;;;;;;2.47;0.80;;;27.60;99.90;;;;;;4953231;28;20038;-79
2021/06/24 07:09:25;;;;;;;3.53;3.15;;;27.70;99.90;;;;;;4954389;29;20539;-77
2021/06/24 07:11:51;;;;;;;0.93;0.88;;;27.70;99.90;;;;;;4954480;28;20031;-76
2021/06/24 07:14:18;;;;;;;1.45;1.35;;;27.80;99.90;;;;;;4955305;28;20019;-77
2021/06/24 07:16:44;;;;;;;1.35;0.60;;;27.90;99.90;;;;;;4954894;28;20033;-75
2021/06/24 07:19:10;;;;;;;3.35;1.58;;;28.00;99.90;;;;;;4953034;29;20144;-76
2021/06/24 07:21:36;;;;;;;7.15;1.52;;;28.10;99.90;;;;;;4955180;28;20483;-77
2021/06/24 07:24:02;;;;;;;1.95;1.35;;;28.10;99.90;;;;;;4955302;28;20030;-76
2021/06/24 07:26:28;;;;;;;4.55;2.67;;;28.10;99.90;;;;;;4966681;28;20027;-75
2021/06/24 07:28:54;;;;;;;7.25;4.13;;;28.10;99.80;;;;;;4962678;28;20555;-75
2021/06/24 07:31:20;;;;;;;2.55;1.95;;;28.20;99.60;;;;;;4952522;29;20035;-77
2021/06/24 07:33:45;;;;;;;2.20;1.67;;;28.40;99.40;;;;;;4954431;29;20111;-78
2021/06/24 07:36:11;;;;;;;8.90;3.90;;;28.30;99.40;;;;;;4954610;28;20026;-76
2021/06/24 07:38:37;;;;;;;1.05;0.98;;;28.20;99.10;;;;;;4953961;29;20036;-79
2021/06/24 07:41:03;;;;;;;1.25;1.15;;;28.30;98.70;;;;;;4955283;28;20026;-79
2021/06/24 07:43:29;;;;;;;1.27;1.17;;;28.30;98.80;;;;;;4955053;28;20031;-79
2021/06/24 07:45:54;;;;;;;2.03;1.58;;;28.30;99.10;;;;;;4954046;29;20435;-79
2021/06/24 07:48:20;;;;;;;1.92;1.63;;;28.40;98.80;;;;;;4955108;28;20524;-81
2021/06/24 07:50:46;;;;;;;8.52;1.80;;;28.60;98.30;;;;;;4953739;29;20086;-80
2021/06/24 07:53:13;;;;;;;2.17;1.85;;;28.60;98.70;;;;;;4955290;28;20046;-80
2021/06/24 07:55:39;;;;;;;1.45;1.25;;;28.70;98.30;;;;;;4954949;28;20027;-78
2021/06/24 07:58:06;;;;;;;1.85;1.70;;;28.80;98.00;;;;;;4953371;29;20109;-76
2021/06/24 08:00:34;;;;;;;4.65;3.30;;;28.90;98.60;;;;;;4953529;29;20020;-77
2021/06/24 08:03:00;;;;;;;2.63;1.48;;;29.00;98.40;;;;;;4953520;29;20502;-77
2021/06/24 08:05:26;;;;;;;1.70;1.45;;;29.00;98.40;;;;;;4953840;29;20058;-76
2021/06/24 08:07:52;;;;;;;1.73;1.63;;;28.90;98.40;;;;;;4954314;29;20570;-75
2021/06/24 08:10:19;;;;;;;1.52;1.38;;;28.70;98.50;;;;;;4955014;28;20039;-75
2021/06/24 08:12:47;;;;;;;1.45;1.27;;;28.60;97.90;;;;;;4952789;28;20028;-78
2021/06/24 08:15:15;;;;;;;2.78;1.30;;;28.80;98.10;;;;;;4954642;28;20035;-77
2021/06/24 08:17:42;;;;;;;4.70;2.53;;;29.00;97.50;;;;;;4954787;28;20042;-78
2021/06/24 08:20:09;;;;;;;2.15;1.92;;;29.00;97.20;;;;;;4954547;28;20537;-79
2021/06/24 08:22:36;;;;;;;2.05;1.77;;;29.00;97.70;;;;;;4951469;29;20028;-77
2021/06/24 08:25:02;;;;;;;3.05;2.13;;;28.90;98.10;;;;;;4952846;28;20023;-76
2021/06/24 08:27:27;;;;;;;2.60;1.88;;;29.00;98.20;;;;;;4952978;28;20034;-75
2021/06/24 08:29:56;;;;;;;17.02;2.70;;;28.90;98.30;;;;;;4953766;29;20058;-75
2021/06/24 08:32:22;;;;;;;0.75;0.75;;;28.90;98.40;;;;;;4953566;28;20024;-73
2021/06/24 08:34:48;;;;;;;1.17;1.08;;;29.20;98.70;;;;;;4954080;28;20028;-77
2021/06/24 08:37:14;;;;;;;3.55;3.03;;;29.30;98.30;;;;;;4954262;28;20035;-76
2021/06/24 08:39:40;;;;;;;1.38;1.15;;;29.30;97.80;;;;;;4954534;28;20031;-74
2021/06/24 08:42:06;;;;;;;0.90;0.80;;;29.10;97.70;;;;;;4953850;28;20027;-73
2021/06/24 08:44:33;;;;;;;1.40;1.30;;;29.30;97.50;;;;;;4952874;28;20051;-74
2021/06/24 08:46:59;;;;;;;6.07;3.22;;;29.50;97.70;;;;;;4953948;29;20364;-73
2021/06/24 08:49:26;;;;;;;5.45;4.72;;;29.50;97.50;;;;;;4953870;28;20399;-72
2021/06/24 08:51:57;;;;;;;16.02;3.67;;;29.60;97.90;;;;;;4952327;29;20070;-73
2021/06/24 08:54:23;;;;;;;4.82;1.83;;;29.50;97.80;;;;;;4953500;28;20015;-75
2021/06/24 08:56:50;;;;;;;1.88;1.48;;;29.50;98.10;;;;;;4953785;28;20024;-74
2021/06/24 08:59:16;;;;;;;0.70;0.70;;;29.70;98.60;;;;;;4953663;28;20023;-74
2021/06/24 09:01:59;;;;;;;0.82;0.70;;;29.90;98.20;;;;;;4953698;28;20027;-75
2021/06/24 09:04:30;;;;;;;1.85;1.63;;;29.90;98.00;;;;;;4954358;28;20043;-74
2021/06/24 09:07:08;;;;;;;0.73;0.68;;;29.70;98.30;;;;;;4953718;28;20019;-77
2021/06/24 09:09:36;;;;;;;3.28;2.13;;;29.70;97.70;;;;;;4953285;28;20019;-75
2021/06/24 09:12:07;;;;;;;6.35;2.90;;;29.60;98.00;;;;;;4953295;28;20459;-73
2021/06/24 09:14:50;;;;;;;2.08;0.82;;;30.00;97.00;;;;;;4953296;28;20078;-74
2021/06/24 09:17:33;;;;;;;1.60;1.50;;;30.40;96.10;;;;;;4953533;29;20086;-73
2021/06/24 09:20:00;;;;;;;6.25;3.28;;;30.50;95.80;;;;;;4953167;28;20427;-72
2021/06/24 09:22:25;;;;;;;1.35;1.25;;;30.80;95.80;;;;;;4953562;29;20042;-74
2021/06/24 09:24:51;;;;;;;1.90;1.75;;;30.90;95.70;;;;;;4953341;28;20391;-74
2021/06/24 09:27:17;;;;;;;0.38;0.38;;;30.70;94.70;;;;;;4953284;28;20035;-74
2021/06/24 09:29:50;;;;;;;1.27;1.00;;;30.80;94.40;;;;;;4953057;28;20042;-74
2021/06/24 09:32:34;;;;;;;0.65;0.63;;;31.30;94.10;;;;;;4953032;28;20094;-73
2021/06/24 09:35:03;;;;;;;1.25;1.08;;;31.50;93.10;;;;;;4953469;28;20035;-74
2021/06/24 09:37:49;;;;;;;3.50;1.30;;;31.70;92.30;;;;;;4953164;28;20130;-73
2021/06/24 09:40:16;;;;;;;0.55;0.55;;;31.90;91.70;;;;;;4953285;29;20059;-73
2021/06/24 09:42:41;;;;;;;2.38;1.85;;;32.10;91.40;;;;;;4951794;29;20416;-73
2021/06/24 09:45:08;;;;;;;3.30;1.85;;;32.10;91.10;;;;;;4951911;29;20388;-76
2021/06/24 09:47:34;;;;;;;1.25;1.02;;;32.10;90.70;;;;;;4951642;29;20161;-76
2021/06/24 09:50:08;;;;;;;1.38;1.27;;;32.30;90.40;;;;;;4953376;28;20031;-75
2021/06/24 09:52:35;;;;;;;2.47;1.80;;;32.60;90.60;;;;;;4953087;28;20057;-75
2021/06/24 09:55:05;;;;;;;1.33;1.23;;;32.70;89.10;;;;;;4953255;28;20020;-76
2021/06/24 09:57:32;;;;;;;1.30;1.20;;;32.60;87.20;;;;;;4951982;28;20496;-72
2021/06/24 10:00:17;;;;;;;3.58;2.67;;;32.80;87.00;;;;;;4952572;28;20031;-75
2021/06/24 10:03:00;;;;;;;0.70;0.52;;;32.70;85.20;;;;;;4949287;28;20434;-72
2021/06/24 10:05:26;;;;;;;0.75;0.65;;;32.80;84.50;;;;;;4952907;29;20031;-73
2021/06/24 10:07:53;;;;;;;1.10;0.98;;;33.00;84.20;;;;;;4952821;28;20364;-75
2021/06/24 10:10:23;;;;;;;0.82;0.73;;;33.30;83.30;;;;;;4952288;28;20031;-77
2021/06/24 10:12:49;;;;;;;1.75;1.05;;;33.20;82.10;;;;;;4952694;28;20020;-75
2021/06/24 10:15:16;;;;;;;2.53;1.52;;;33.10;81.50;;;;;;4952950;28;20093;-78
2021/06/24 10:17:43;;;;;;;2.85;2.38;;;32.90;79.70;;;;;;4952300;28;20035;-76
2021/06/24 10:20:10;;;;;;;13.85;4.30;;;32.70;78.60;;;;;;4952380;28;20040;-76
2021/06/24 10:22:38;;;;;;;7.10;3.38;;;32.90;79.40;;;;;;4949038;29;20032;-74
2021/06/24 10:25:15;;;;;;;13.38;4.82;;;33.20;77.20;;;;;;4951742;29;20023;-76
2021/06/24 10:27:45;;;;;;;16.35;5.32;;;33.10;77.30;;;;;;4950670;29;20522;-74
2021/06/24 10:30:14;;;;;;;1.23;1.13;;;33.00;75.10;;;;;;4949819;29;20087;-75
2021/06/24 10:32:42;;;;;;;5.15;2.10;;;33.20;74.90;;;;;;4952215;28;20422;-75
2021/06/24 10:35:26;;;;;;;0.65;0.60;;;33.20;74.30;;;;;;4952580;29;20023;-77
2021/06/24 10:37:52;;;;;;;0.88;0.65;;;33.60;74.60;;;;;;4946738;28;20019;-75
2021/06/24 10:40:27;;;;;;;2.38;2.00;;;34.20;73.90;;;;;;4951642;28;20353;-75
2021/06/24 10:42:58;;;;;;;1.13;1.05;;;34.40;71.20;;;;;;4947010;28;20027;-75
2021/06/24 10:45:25;;;;;;;8.23;3.60;;;34.20;70.20;;;;;;4951673;28;20651;-77
2021/06/24 10:47:52;;;;;;;5.30;1.08;;;34.20;71.00;;;;;;4952187;28;20036;-77
2021/06/24 10:50:30;;;;;;;1.48;0.93;;;34.40;70.30;;;;;;4953376;28;20047;-76
2021/06/24 10:53:16;;;;;;;5.10;1.75;;;34.20;70.10;;;;;;4972942;28;20046;-76
2021/06/24 10:55:46;;;;;;;1.42;1.08;;;34.30;70.10;;;;;;4919829;29;20106;-77
2021/06/24 10:58:18;;;;;;;1.13;0.90;;;34.80;70.00;;;;;;4935103;29;20034;-80
2021/06/24 11:00:55;;;;;;;1.17;1.08;;;35.10;70.90;;;;;;4936946;29;20052;-78
2021/06/24 11:03:30;;;;;;;6.07;2.22;;;35.40;69.10;;;;;;4936637;29;20432;-77
2021/06/24 11:06:15;;;;;;;0.63;0.63;;;35.40;68.30;;;;;;4939604;28;20027;-77
2021/06/24 11:08:43;;;;;;;4.90;2.90;;;35.20;66.40;;;;;;4958990;28;20085;-77
2021/06/24 11:11:14;;;;;;;0.55;0.55;;;34.70;65.70;;;;;;4974927;28;20038;-79
2021/06/24 11:13:47;;;;;;;0.85;0.60;;;34.30;65.20;;;;;;4974173;28;20023;-77
2021/06/24 11:16:16;;;;;;;0.57;0.57;;;34.40;64.70;;;;;;4974191;28;20041;-78
2021/06/24 11:18:46;;;;;;;1.27;0.87;;;34.50;63.80;;;;;;4972841;28;20411;-76
2021/06/24 11:21:22;;;;;;;0.80;0.63;;;34.50;63.70;;;;;;4966105;28;20023;-78
2021/06/24 11:23:54;;;;;;;4.90;2.03;;;34.70;64.00;;;;;;4955077;29;20388;-77
2021/06/24 11:26:26;;;;;;;2.92;1.85;;;34.60;64.20;;;;;;4955056;29;20483;-76
2021/06/24 11:28:57;;;;;;;0.40;0.40;;;34.90;64.00;;;;;;4950879;28;20039;-75
2021/06/24 11:34:40;;;;;;;0.33;0.33;;;35.90;63.00;;;;;;4969253;28;20534;-76
2021/06/24 11:37:09;;;;;;;4.63;3.15;;;36.20;63.00;;;;;;4960094;28;20315;-77
2021/06/24 11:39:39;;;;;;;2.40;1.83;;;36.20;63.30;;;;;;4974015;28;20026;-76
2021/06/24 11:42:15;;;;;;;1.70;1.10;;;36.20;63.70;;;;;;4972051;28;20430;-75
2021/06/24 11:44:52;;;;;;;0.32;0.32;;;36.10;62.70;;;;;;4973785;28;20047;-75
2021/06/24 11:47:26;;;;;;;0.90;0.85;;;35.70;62.40;;;;;;4968107;28;20427;-75
2021/06/24 12:04:18;;;;;;;1.85;1.20;;;34.60;62.40;;;;;;4952961;28;20043;-75
2021/06/24 12:06:49;;;;;;;0.70;0.52;;;34.70;62.60;;;;;;4963265;28;20165;-75
2021/06/24 12:09:21;;;;;;;0.55;0.55;;;34.80;63.00;;;;;;4972787;28;20483;-76
2021/06/24 12:11:55;;;;;;;1.95;1.73;;;34.90;62.50;;;;;;4972294;28;20541;-76
2021/06/24 12:14:26;;;;;;;4.35;1.75;;;35.10;63.80;;;;;;4972356;28;20415;-77
2021/06/24 12:17:13;;;;;;;0.63;0.55;;;35.20;62.00;;;;;;4966393;28;20038;-75
2021/06/24 12:20:03;;;;;;;5.35;3.13;;;35.30;61.60;;;;;;4953657;29;20126;-75
2021/06/24 12:22:32;;;;;;;0.77;0.70;;;36.00;61.00;;;;;;4952620;29;20038;-76
2021/06/24 12:24:59;;;;;;;0.77;0.77;;;36.50;59.90;;;;;;4953598;29;20498;-77
2021/06/24 12:27:34;;;;;;;4.50;1.90;;;36.50;59.70;;;;;;4953904;29;20073;-75
2021/06/24 12:30:06;;;;;;;1.65;1.55;;;36.50;59.90;;;;;;4954285;29;20034;-76
2021/06/24 12:32:32;;;;;;;1.15;1.05;;;36.70;59.70;;;;;;4953975;28;20042;-74
2021/06/24 12:34:59;;;;;;;0.43;0.40;;;36.80;60.50;;;;;;4954072;29;20391;-75
2021/06/24 12:37:39;;;;;;;5.57;1.17;;;36.80;59.20;;;;;;4953561;29;20042;-76
2021/06/24 12:40:07;;;;;;;2.67;1.40;;;37.00;61.30;;;;;;4954137;29;20510;-76
2021/06/24 12:42:41;;;;;;;0.93;0.90;;;37.10;59.70;;;;;;4954109;29;20054;-74
2021/06/24 12:45:07;;;;;;;0.68;0.68;;;37.40;59.90;;;;;;4952845;28;20059;-77
2021/06/24 12:47:41;;;;;;;0.80;0.70;;;37.60;59.80;;;;;;4953640;28;20039;-77
2021/06/24 12:50:29;;;;;;;2.03;0.88;;;37.80;59.60;;;;;;4953778;29;20047;-77
2021/06/24 12:52:56;;;;;;;3.10;1.70;;;37.80;59.00;;;;;;4952393;29;20024;-76
2021/06/24 12:55:40;;;;;;;1.98;0.88;;;37.60;58.50;;;;;;4953475;29;20016;-76
2021/06/24 12:58:07;;;;;;;2.40;1.25;;;37.70;58.80;;;;;;4958357;28;20113;-76
2021/06/24 13:00:34;;;;;;;3.72;1.85;;;37.90;58.50;;;;;;4955421;28;20042;-75
2021/06/24 13:03:00;;;;;;;1.75;0.93;;;38.00;58.20;;;;;;4953028;29;20031;-77
2021/06/24 13:05:27;;;;;;;1.55;0.88;;;37.90;58.70;;;;;;4953604;28;20031;-77
2021/06/24 13:08:02;;;;;;;10.02;2.10;;;37.90;57.80;;;;;;4953195;29;20046;-76